createdAt,value
2023-05-10T00:01:42.595Z,101423.16
2023-05-10T00:03:44.436Z,101383.38
2023-05-10T00:05:46.161Z,101412.59
2023-05-10T00:07:47.640Z,101442.91
2023-05-10T00:09:49.313Z,101436.44
2023-05-10T00:11:50.972Z,101431.38
2023-05-10T00:13:52.454Z,101417.19
2023-05-10T00:15:54.091Z,101424.97
2023-05-10T00:17:55.616Z,101429.06
2023-05-10T00:19:57.080Z,101434.47
2023-05-10T00:21:58.638Z,101423.13
2023-05-10T00:24:00.527Z,101417.00
2023-05-10T00:26:01.941Z,101425.16
2023-05-10T00:28:03.714Z,101423.34
2023-05-10T00:30:05.718Z,101424.13
2023-05-10T00:32:07.187Z,101412.75
2023-05-10T00:34:09.258Z,101400.94
2023-05-10T00:36:10.658Z,101419.56
2023-05-10T00:38:12.091Z,101411.84
2023-05-10T00:40:14.326Z,101420.50
2023-05-10T00:42:15.972Z,101416.63
2023-05-10T00:44:17.434Z,101420.22
2023-05-10T00:46:19.915Z,101421.53
2023-05-10T00:48:22.414Z,101413.31
2023-05-10T00:50:24.394Z,101416.16
2023-05-10T00:52:26.265Z,101368.81
2023-05-10T00:54:27.704Z,101418.72
2023-05-10T00:56:29.421Z,101407.59
2023-05-10T00:58:31.027Z,101414.81
2023-05-10T01:00:34.072Z,101412.38
2023-05-10T01:02:35.786Z,101417.00
2023-05-10T01:04:38.758Z,101403.22
2023-05-10T01:06:41.202Z,101393.31
2023-05-10T01:08:42.797Z,101413.06
2023-05-10T01:10:45.123Z,101396.94
2023-05-10T01:12:47.665Z,101409.44
2023-05-10T01:14:49.515Z,101403.78
2023-05-10T01:16:51.386Z,101409.91
2023-05-10T01:18:53.230Z,101396.50
2023-05-10T01:21:12.420Z,101399.38
2023-05-10T01:23:19.943Z,101410.03
2023-05-10T01:25:33.006Z,101392.41
2023-05-10T01:27:49.555Z,101404.88
2023-05-10T01:30:15.372Z,101379.97
2023-05-10T01:32:25.336Z,101382.09
2023-05-10T01:34:43.480Z,101401.31
2023-05-10T01:37:04.295Z,101402.84
2023-05-10T01:39:17.926Z,101394.25
2023-05-10T01:41:28.665Z,101394.44
2023-05-10T01:43:37.463Z,101380.81
2023-05-10T01:45:48.088Z,101398.13
2023-05-10T01:47:57.715Z,101396.00
2023-05-10T01:50:03.264Z,101393.66
2023-05-10T01:52:11.615Z,101373.72
2023-05-10T01:54:14.953Z,101380.16
2023-05-10T01:56:17.932Z,101392.09
2023-05-10T01:58:28.252Z,101372.69
2023-05-10T02:00:30.817Z,101372.41
2023-05-10T02:02:38.003Z,101369.53
2023-05-10T02:04:43.781Z,101363.09
2023-05-10T02:06:47.014Z,101381.25
2023-05-10T02:08:51.236Z,101376.63
2023-05-10T02:10:56.544Z,101375.78
2023-05-10T02:13:00.451Z,101372.81
2023-05-10T02:15:05.368Z,101367.88
2023-05-10T02:17:08.551Z,101374.31
2023-05-10T02:19:12.666Z,101369.34
2023-05-10T02:21:15.651Z,101366.81
2023-05-10T02:23:18.531Z,101335.28
2023-05-10T02:25:22.029Z,101374.41
2023-05-10T02:27:25.237Z,101375.34
2023-05-10T02:29:29.002Z,101373.22
2023-05-10T02:31:33.179Z,101353.63
2023-05-10T02:33:35.804Z,101382.00
2023-05-10T02:35:38.998Z,101366.28
2023-05-10T02:37:40.977Z,101381.25
2023-05-10T02:39:42.629Z,101382.31
2023-05-10T02:41:46.376Z,101367.75
2023-05-10T02:43:48.230Z,101380.94
2023-05-10T02:45:50.256Z,101386.81
2023-05-10T02:47:51.939Z,101380.72
2023-05-10T02:49:53.678Z,101362.28
2023-05-10T02:52:00.899Z,101377.47
2023-05-10T02:54:13.468Z,101383.16
2023-05-10T02:56:20.502Z,101370.72
2023-05-10T02:58:22.687Z,101363.75
2023-05-10T03:00:25.447Z,101384.00
2023-05-10T03:02:27.377Z,101382.91
2023-05-10T03:04:28.933Z,101386.91
2023-05-10T03:06:30.388Z,101386.84
2023-05-10T03:08:32.000Z,101390.81
2023-05-10T03:10:39.095Z,101399.03
2023-05-10T03:12:52.390Z,101393.66
2023-05-10T03:15:12.341Z,101395.75
2023-05-10T03:17:38.610Z,101396.59
2023-05-10T03:19:56.027Z,101392.91
2023-05-10T03:22:00.878Z,101381.25
2023-05-10T03:24:13.187Z,101395.69
2023-05-10T03:26:21.411Z,101385.44
2023-05-10T03:28:26.815Z,101376.63
2023-05-10T03:30:29.000Z,101382.06
2023-05-10T03:32:30.891Z,101370.88
2023-05-10T03:34:32.397Z,101378.88
2023-05-10T03:36:33.823Z,101388.59
2023-05-10T03:38:35.389Z,101377.94
2023-05-10T03:40:36.972Z,101385.53
2023-05-10T03:42:38.363Z,101381.81
2023-05-10T03:44:40.929Z,101385.00
2023-05-10T03:46:42.494Z,101378.63
2023-05-10T03:48:43.931Z,101364.09
2023-05-10T03:50:45.430Z,101378.63
2023-05-10T03:52:46.978Z,101379.19
2023-05-10T03:54:48.410Z,101373.84
2023-05-10T03:56:49.940Z,101373.78
2023-05-10T03:58:51.394Z,101356.03
2023-05-10T04:00:53.046Z,101371.28
2023-05-10T04:02:54.693Z,101372.31
2023-05-10T04:04:56.442Z,101364.63
2023-05-10T04:06:57.829Z,101368.72
2023-05-10T04:08:59.319Z,101372.41
2023-05-10T04:11:07.628Z,101373.78
2023-05-10T04:13:09.054Z,101372.88
2023-05-10T04:15:10.704Z,101383.50
2023-05-10T04:17:12.262Z,101359.94
2023-05-10T04:19:13.671Z,101382.28
2023-05-10T04:21:15.914Z,101377.28
2023-05-10T04:23:17.467Z,101341.13
2023-05-10T04:25:19.017Z,101382.16
2023-05-10T04:27:20.572Z,101381.34
2023-05-10T04:29:22.212Z,101372.78
2023-05-10T04:31:23.684Z,101386.63
2023-05-10T04:33:25.270Z,101368.03
2023-05-10T04:35:26.823Z,101375.81
2023-05-10T04:37:28.209Z,101383.59
2023-05-10T04:39:29.694Z,101352.94
2023-05-10T04:41:31.331Z,101375.47
2023-05-10T04:43:32.758Z,101365.38
2023-05-10T04:45:34.325Z,101370.56
2023-05-10T04:47:35.922Z,101367.56
2023-05-10T04:49:37.565Z,101370.06
2023-05-10T04:51:39.133Z,101369.03
2023-05-10T04:53:41.777Z,101375.75
2023-05-10T04:55:43.381Z,101357.34
2023-05-10T04:57:44.962Z,101376.75
2023-05-10T04:59:47.997Z,101374.06
2023-05-10T05:01:50.432Z,101377.72
2023-05-10T05:03:52.307Z,101379.38
2023-05-10T05:05:53.817Z,101371.72
2023-05-10T05:07:55.203Z,101364.72
2023-05-10T05:09:57.028Z,101366.06
2023-05-10T05:11:59.046Z,101382.28
2023-05-10T05:14:00.462Z,101365.84
2023-05-10T05:16:03.531Z,101370.13
2023-05-10T05:18:05.274Z,101377.72
2023-05-10T05:20:07.312Z,101369.72
2023-05-10T05:22:08.832Z,101367.69
2023-05-10T05:24:10.397Z,101362.16
2023-05-10T05:26:12.060Z,101351.56
2023-05-10T05:28:13.690Z,101366.72
2023-05-10T05:30:15.412Z,101366.66
2023-05-10T05:32:17.068Z,101361.81
2023-05-10T05:34:18.689Z,101350.00
2023-05-10T05:36:20.190Z,101355.19
2023-05-10T05:38:21.601Z,101351.03
2023-05-10T05:40:23.207Z,101350.28
2023-05-10T05:42:24.767Z,101366.22
2023-05-10T05:44:26.154Z,101356.53
2023-05-10T05:46:27.956Z,101360.56
2023-05-10T05:48:31.409Z,101353.78
2023-05-10T05:50:32.796Z,101363.63
2023-05-10T05:52:34.467Z,101361.53
2023-05-10T05:54:36.052Z,101361.56
2023-05-10T05:56:37.448Z,101363.41
2023-05-10T05:58:39.028Z,101361.59
2023-05-10T06:00:40.733Z,101352.44
2023-05-10T06:02:42.286Z,101357.06
2023-05-10T06:04:44.857Z,101366.44
2023-05-10T06:06:46.579Z,101352.00
2023-05-10T06:08:47.980Z,101351.00
2023-05-10T06:10:49.486Z,101359.25
2023-05-10T06:12:51.179Z,101347.03
2023-05-10T06:14:52.623Z,101361.94
2023-05-10T06:16:54.281Z,101366.00
2023-05-10T06:18:55.924Z,101346.78
2023-05-10T06:20:57.337Z,101355.94
2023-05-10T06:22:59.218Z,101348.66
2023-05-10T06:25:00.719Z,101364.84
2023-05-10T06:27:02.135Z,101356.84
2023-05-10T06:29:04.061Z,101335.09
2023-05-10T06:31:05.879Z,101351.50
2023-05-10T06:33:07.318Z,101343.72
2023-05-10T06:35:09.477Z,101357.88
2023-05-10T06:37:11.127Z,101327.94
2023-05-10T06:39:12.519Z,101350.91
2023-05-10T06:41:14.203Z,101339.44
2023-05-10T06:43:16.069Z,101336.50
2023-05-10T06:45:17.821Z,101349.19
2023-05-10T06:47:19.779Z,101347.16
2023-05-10T06:49:21.392Z,101347.84
2023-05-10T06:51:22.839Z,101341.72
2023-05-10T06:53:24.474Z,101344.63
2023-05-10T06:55:27.111Z,101325.34
2023-05-10T06:57:31.605Z,101334.72
2023-05-10T06:59:34.318Z,101340.16
2023-05-10T07:01:35.882Z,101345.03
2023-05-10T07:03:37.339Z,101338.16
2023-05-10T07:05:39.112Z,101340.19
2023-05-10T07:07:40.873Z,101346.25
2023-05-10T07:09:42.342Z,101342.59
2023-05-10T07:11:43.757Z,101333.09
2023-05-10T07:13:45.266Z,101347.34
2023-05-10T07:15:46.723Z,101347.53
2023-05-10T07:17:48.387Z,101350.03
2023-05-10T07:19:50.089Z,101329.13
2023-05-10T07:21:51.534Z,101342.00
2023-05-10T07:23:53.127Z,101348.09
2023-05-10T07:25:54.756Z,101345.84
2023-05-10T07:27:56.163Z,101332.72
2023-05-10T07:29:57.750Z,101356.72
2023-05-10T07:31:59.353Z,101341.47
2023-05-10T07:34:00.759Z,101350.50
2023-05-10T07:36:02.274Z,101342.97
2023-05-10T07:38:03.832Z,101349.16
2023-05-10T07:40:06.138Z,101340.78
2023-05-10T07:42:07.684Z,101355.66
2023-05-10T07:44:09.183Z,101353.00
2023-05-10T07:46:10.756Z,101331.56
2023-05-10T07:48:12.336Z,101337.88
2023-05-10T07:50:13.775Z,101316.91
2023-05-10T07:52:15.206Z,101331.28
2023-05-10T07:54:16.891Z,101345.69
2023-05-10T07:56:38.604Z,101334.41
2023-05-10T07:58:40.019Z,101334.25
2023-05-10T08:00:41.623Z,101343.09
2023-05-10T08:02:43.175Z,101333.28
2023-05-10T08:04:44.631Z,101336.84
2023-05-10T08:06:46.225Z,101334.94
2023-05-10T08:08:48.476Z,101321.38
2023-05-10T08:10:49.881Z,101321.06
2023-05-10T08:12:51.484Z,101334.31
2023-05-10T08:14:55.887Z,101342.09
2023-05-10T08:16:57.355Z,101319.69
2023-05-10T08:18:59.087Z,101333.38
2023-05-10T08:21:00.594Z,101313.63
2023-05-10T08:23:02.012Z,101320.25
2023-05-10T08:25:03.656Z,101325.34
2023-05-10T08:27:08.888Z,101328.81
2023-05-10T08:29:10.283Z,101317.56
2023-05-10T08:31:11.882Z,101330.09
2023-05-10T08:33:13.521Z,101333.34
2023-05-10T08:35:15.300Z,101317.84
2023-05-10T08:37:17.215Z,101321.47
2023-05-10T08:39:29.332Z,101334.53
2023-05-10T08:41:36.406Z,101331.47
2023-05-10T08:43:38.638Z,101323.50
2023-05-10T08:45:41.780Z,101327.06
2023-05-10T08:47:43.393Z,101316.72
2023-05-10T08:49:49.103Z,101331.75
2023-05-10T08:51:55.984Z,101336.53
2023-05-10T08:53:57.804Z,101329.25
2023-05-10T08:55:59.544Z,101326.97
2023-05-10T08:58:01.400Z,101305.69
2023-05-10T09:00:03.349Z,101316.22
2023-05-10T09:02:06.160Z,101328.06
2023-05-10T09:04:07.698Z,101310.34
2023-05-10T09:06:09.245Z,101317.31
2023-05-10T09:08:11.074Z,101321.94
2023-05-10T09:10:14.125Z,101302.88
2023-05-10T09:12:16.101Z,101323.44
2023-05-10T09:14:18.612Z,101319.88
2023-05-10T09:16:22.273Z,101312.28
2023-05-10T09:18:25.955Z,101319.41
2023-05-10T09:20:29.106Z,101314.09
2023-05-10T09:22:34.659Z,101324.63
2023-05-10T09:24:36.076Z,101318.41
2023-05-10T09:26:47.239Z,101315.00
2023-05-10T09:28:53.524Z,101315.50
2023-05-10T09:30:54.965Z,101318.88
2023-05-10T09:32:57.806Z,101311.88
2023-05-10T09:35:07.595Z,101317.09
2023-05-10T09:37:09.013Z,101317.09
2023-05-10T09:39:10.541Z,101321.56
2023-05-10T09:41:19.567Z,101297.00
2023-05-10T09:43:21.131Z,101285.59
2023-05-10T09:45:24.802Z,101318.56
2023-05-10T09:47:26.302Z,101316.97
2023-05-10T09:49:27.995Z,101314.94
2023-05-10T09:51:29.526Z,101305.41
2023-05-10T09:53:32.836Z,101306.47
2023-05-10T09:55:36.968Z,101310.63
2023-05-10T09:57:38.542Z,101317.31
2023-05-10T09:59:44.030Z,101302.53
2023-05-10T10:01:51.729Z,101297.53
2023-05-10T10:03:54.142Z,101300.28
2023-05-10T10:05:55.611Z,101275.09
2023-05-10T10:07:58.970Z,101296.09
2023-05-10T10:10:01.303Z,101296.09
2023-05-10T10:12:03.630Z,101279.91
2023-05-10T10:14:05.885Z,101282.31
2023-05-10T10:16:09.392Z,101298.59
2023-05-10T10:18:14.661Z,101282.16
2023-05-10T10:20:17.675Z,101291.63
2023-05-10T10:22:19.439Z,101271.97
2023-05-10T10:24:20.866Z,101279.16
2023-05-10T10:26:23.014Z,101257.00
2023-05-10T10:28:39.506Z,101274.97
2023-05-10T10:30:47.914Z,101269.66
2023-05-10T10:33:20.149Z,101278.63
2023-05-10T10:35:31.011Z,101255.81
2023-05-10T10:37:46.129Z,101266.38
2023-05-10T10:39:50.008Z,101269.13
2023-05-10T10:41:56.496Z,101267.78
2023-05-10T10:44:22.886Z,101268.28
2023-05-10T10:46:24.349Z,101250.56
2023-05-10T10:48:25.990Z,101271.22
2023-05-10T10:50:27.653Z,101267.81
2023-05-10T10:52:32.709Z,101264.16
2023-05-10T10:54:34.425Z,101266.22
2023-05-10T10:56:37.106Z,101266.47
2023-05-10T10:58:39.577Z,101274.59
2023-05-10T11:00:41.462Z,101249.72
2023-05-10T11:02:46.956Z,101264.00
2023-05-10T11:04:48.571Z,101258.97
2023-05-10T11:06:50.246Z,101254.69
2023-05-10T11:08:52.875Z,101261.81
2023-05-10T11:11:04.328Z,101252.34
2023-05-10T11:13:08.598Z,101243.41
2023-05-10T11:15:10.623Z,101244.06
2023-05-10T11:17:28.572Z,101242.84
2023-05-10T11:19:30.025Z,101249.81
2023-05-10T11:21:32.735Z,101245.50
2023-05-10T11:23:52.648Z,101243.56
2023-05-10T11:25:55.147Z,101229.63
2023-05-10T11:27:56.787Z,101240.84
2023-05-10T11:29:58.354Z,101226.78
2023-05-10T11:32:00.934Z,101235.69
2023-05-10T11:34:02.535Z,101242.44
2023-05-10T11:36:03.963Z,101227.31
2023-05-10T11:38:11.211Z,101242.63
2023-05-10T11:40:12.916Z,101235.00
2023-05-10T11:42:14.370Z,101243.75
2023-05-10T11:44:16.018Z,101226.03
2023-05-10T11:46:20.611Z,101252.88
2023-05-10T11:48:22.121Z,101236.03
2023-05-10T11:50:23.761Z,101245.16
2023-05-10T11:52:25.404Z,101240.78
2023-05-10T11:54:26.812Z,101231.69
2023-05-10T11:56:28.281Z,101239.81
2023-05-10T11:58:29.676Z,101245.63
2023-05-10T12:00:31.909Z,101237.00
2023-05-10T12:02:33.558Z,101227.78
2023-05-10T12:04:35.141Z,101221.09
2023-05-10T12:06:41.732Z,101235.63
2023-05-10T12:08:47.446Z,101229.88
2023-05-10T12:10:49.065Z,101215.78
2023-05-10T12:12:53.280Z,101223.16
2023-05-10T12:14:54.861Z,101235.28
2023-05-10T12:16:58.332Z,101233.06
2023-05-10T12:19:01.341Z,101229.66
2023-05-10T12:21:05.160Z,101221.50
2023-05-10T12:23:09.069Z,101215.38
2023-05-10T12:25:10.741Z,101217.41
2023-05-10T12:29:31.781Z,101221.75
2023-05-10T12:31:33.222Z,101223.59
2023-05-10T12:33:42.733Z,101226.53
2023-05-10T12:35:49.537Z,101215.34
2023-05-10T12:37:53.885Z,101229.19
2023-05-10T12:39:55.282Z,101212.69
2023-05-10T12:41:57.153Z,101210.56
2023-05-10T12:43:58.573Z,101223.16
2023-05-10T12:46:04.996Z,101217.81
2023-05-10T12:48:06.910Z,101216.13
2023-05-10T12:50:08.648Z,101202.63
2023-05-10T12:52:10.045Z,101218.16
2023-05-10T12:54:11.700Z,101195.56
2023-05-10T12:56:13.120Z,101199.28
2023-05-10T12:58:31.474Z,101193.34
2023-05-10T13:00:36.643Z,101199.88
2023-05-10T13:02:38.107Z,101213.00
2023-05-10T13:04:39.569Z,101207.59
2023-05-10T13:06:41.225Z,101191.66
2023-05-10T13:08:42.590Z,101203.03
2023-05-10T13:10:44.022Z,101203.47
2023-05-10T13:12:46.056Z,101203.66
2023-05-10T13:14:47.479Z,101202.88
2023-05-10T13:16:49.053Z,101193.22
2023-05-10T13:18:50.705Z,101200.19
2023-05-10T13:20:52.245Z,101188.72
2023-05-10T13:22:53.633Z,101186.25
2023-05-10T13:24:55.384Z,101193.97
2023-05-10T13:26:56.878Z,101196.91
2023-05-10T13:28:58.260Z,101177.13
2023-05-10T13:31:02.097Z,101171.94
2023-05-10T13:33:03.723Z,101175.16
2023-05-10T13:35:06.188Z,101178.72
2023-05-10T13:37:07.907Z,101176.97
2023-05-10T13:39:09.304Z,101178.25
2023-05-10T13:41:11.500Z,101157.31
2023-05-10T13:43:13.387Z,101171.13
2023-05-10T13:45:14.997Z,101166.44
2023-05-10T13:47:16.583Z,101167.25
2023-05-10T13:49:18.135Z,101149.09
2023-05-10T13:51:19.540Z,101171.00
2023-05-10T13:53:20.933Z,101165.78
2023-05-10T13:55:22.701Z,101173.00
2023-05-10T13:57:24.178Z,101170.00
2023-05-10T13:59:25.643Z,101160.22
2023-05-10T14:01:27.392Z,101160.84
2023-05-10T14:03:29.059Z,101167.16
2023-05-10T14:05:30.499Z,101150.16
2023-05-10T14:07:32.264Z,101133.53
2023-05-10T14:09:33.679Z,101139.75
2023-05-10T14:11:35.457Z,101158.03
2023-05-10T14:13:37.349Z,101163.28
2023-05-10T14:15:38.885Z,101144.25
2023-05-10T14:17:40.462Z,101145.59
2023-05-10T14:19:42.196Z,101147.34
2023-05-10T14:21:43.624Z,101150.19
2023-05-10T14:23:45.044Z,101147.16
2023-05-10T14:25:46.681Z,101130.34
2023-05-10T14:27:48.108Z,101149.81
2023-05-10T14:29:49.516Z,101157.91
2023-05-10T14:31:51.249Z,101139.16
2023-05-10T14:33:52.742Z,101150.31
2023-05-10T14:35:55.068Z,101149.66
2023-05-10T14:37:56.625Z,101127.28
2023-05-10T14:39:58.025Z,101144.50
2023-05-10T14:41:59.580Z,101142.25
2023-05-10T14:44:01.647Z,101145.34
2023-05-10T14:46:03.145Z,101145.66
2023-05-10T14:48:04.668Z,101134.72
2023-05-10T14:50:07.152Z,101153.19
2023-05-10T14:52:08.608Z,101149.09
2023-05-10T14:54:10.012Z,101147.13
2023-05-10T14:56:11.918Z,101138.25
2023-05-10T14:58:13.314Z,101151.59
2023-05-10T15:00:15.400Z,101152.75
2023-05-10T15:02:17.589Z,101151.41
2023-05-10T15:04:19.684Z,101136.19
2023-05-10T15:06:31.081Z,101139.44
2023-05-10T15:08:32.786Z,101148.31
2023-05-10T15:10:34.636Z,101143.91
2023-05-10T15:12:36.078Z,101139.53
2023-05-10T15:14:37.483Z,101143.72
2023-05-10T15:16:38.915Z,101139.28
2023-05-10T15:18:40.484Z,101119.97
2023-05-10T15:20:42.491Z,101134.72
2023-05-10T15:22:44.274Z,101137.66
2023-05-10T15:24:45.798Z,101133.19
2023-05-10T15:26:47.322Z,101129.06
2023-05-10T15:28:48.718Z,101134.78
2023-05-10T15:30:50.112Z,101135.84
2023-05-10T15:32:51.987Z,101131.19
2023-05-10T15:34:53.417Z,101134.84
2023-05-10T15:36:54.825Z,101135.69
2023-05-10T15:38:56.816Z,101124.50
2023-05-10T15:40:58.219Z,101121.13
2023-05-10T15:42:59.675Z,101128.56
2023-05-10T15:45:01.626Z,101118.44
2023-05-10T15:47:03.173Z,101135.94
2023-05-10T15:49:04.868Z,101137.59
2023-05-10T15:51:06.523Z,101135.13
2023-05-10T15:53:07.917Z,101126.56
2023-05-10T15:55:09.929Z,101139.72
2023-05-10T15:57:11.526Z,101128.28
2023-05-10T15:59:12.924Z,101128.91
2023-05-10T16:01:14.515Z,101128.41
2023-05-10T16:03:16.453Z,101131.78
2023-05-10T16:05:18.179Z,101133.28
2023-05-10T16:07:19.752Z,101128.53
2023-05-10T16:09:21.906Z,101129.50
2023-05-10T16:11:23.410Z,101108.75
2023-05-10T16:13:24.935Z,101136.28
2023-05-10T16:15:26.527Z,101135.97
2023-05-10T16:17:28.273Z,101128.22
2023-05-10T16:19:30.276Z,101140.00
2023-05-10T16:21:31.915Z,101119.69
2023-05-10T16:23:33.335Z,101130.84
2023-05-10T16:25:34.916Z,101130.97
2023-05-10T16:27:36.569Z,101125.97
2023-05-10T16:29:38.037Z,101127.88
2023-05-10T16:31:39.421Z,101148.44
2023-05-10T16:33:41.140Z,101142.63
2023-05-10T16:35:42.831Z,101135.94
2023-05-10T16:37:44.340Z,101144.84
2023-05-10T16:39:46.006Z,101140.56
2023-05-10T16:41:47.396Z,101144.50
2023-05-10T16:43:48.828Z,101153.09
2023-05-10T16:45:50.400Z,101147.59
2023-05-10T16:47:51.998Z,101141.03
2023-05-10T16:49:53.442Z,101135.53
2023-05-10T16:51:54.936Z,101149.38
2023-05-10T16:53:56.324Z,101152.47
2023-05-10T16:55:57.733Z,101159.72
2023-05-10T16:57:59.381Z,101151.66
2023-05-10T17:00:00.948Z,101162.78
2023-05-10T17:02:02.591Z,101162.78
2023-05-10T17:04:04.577Z,101150.94
2023-05-10T17:06:06.361Z,101153.47
2023-05-10T17:08:07.782Z,101152.16
2023-05-10T17:10:09.780Z,101168.63
2023-05-10T17:12:11.727Z,101166.56
2023-05-10T17:14:13.137Z,101149.84
2023-05-10T17:16:14.896Z,101156.03
2023-05-10T17:18:16.389Z,101166.97
2023-05-10T17:20:17.941Z,101172.97
2023-05-10T17:22:19.647Z,101173.53
2023-05-10T17:24:21.140Z,101155.63
2023-05-10T17:26:22.553Z,101171.84
2023-05-10T17:28:25.421Z,101183.25
2023-05-10T17:30:26.807Z,101172.91
2023-05-10T17:32:28.219Z,101171.97
2023-05-10T17:34:29.905Z,101186.19
2023-05-10T17:36:31.330Z,101186.56
2023-05-10T17:38:32.764Z,101186.50
2023-05-10T17:40:34.493Z,101187.47
2023-05-10T17:42:35.877Z,101163.06
2023-05-10T17:44:37.363Z,101189.19
2023-05-10T17:46:39.072Z,101186.56
2023-05-10T17:48:40.494Z,101190.25
2023-05-10T17:50:42.424Z,101176.84
2023-05-10T17:52:43.934Z,101177.03
2023-05-10T17:54:45.342Z,101198.75
2023-05-10T17:56:46.746Z,101185.16
2023-05-10T17:58:48.517Z,101188.41
2023-05-10T18:00:49.953Z,101205.75
2023-05-10T18:02:51.393Z,101199.31
2023-05-10T18:04:53.150Z,101189.97
2023-05-10T18:06:54.621Z,101192.84
2023-05-10T18:08:56.074Z,101216.41
2023-05-10T18:10:57.707Z,101202.38
2023-05-10T18:12:59.217Z,101202.44
2023-05-10T18:15:00.624Z,101201.78
2023-05-10T18:17:02.304Z,101212.81
2023-05-10T18:19:03.926Z,101211.16
2023-05-10T18:21:05.539Z,101202.69
2023-05-10T18:23:07.209Z,101218.03
2023-05-10T18:25:09.047Z,101208.38
2023-05-10T18:27:10.597Z,101209.19
2023-05-10T18:29:12.506Z,101201.56
2023-05-10T18:31:13.925Z,101223.25
2023-05-10T18:33:15.355Z,101218.22
2023-05-10T18:35:17.255Z,101222.94
2023-05-10T18:37:18.827Z,101237.97
2023-05-10T18:39:20.346Z,101224.56
2023-05-10T18:41:21.924Z,101239.63
2023-05-10T18:43:23.324Z,101240.97
2023-05-10T18:45:24.747Z,101241.97
2023-05-10T18:47:26.538Z,101227.59
2023-05-10T18:49:28.065Z,101245.63
2023-05-10T18:51:29.567Z,101242.97
2023-05-10T18:53:31.191Z,101230.56
2023-05-10T18:55:32.592Z,101241.09
2023-05-10T18:57:34.000Z,101260.25
2023-05-10T18:59:35.709Z,101252.44
2023-05-10T19:01:37.374Z,101254.59
2023-05-10T19:03:38.848Z,101254.59
2023-05-10T19:05:40.426Z,101259.59
2023-05-10T19:07:41.848Z,101250.72
2023-05-10T19:09:43.280Z,101265.72
2023-05-10T19:11:45.223Z,101249.00
2023-05-10T19:13:46.628Z,101259.84
2023-05-10T19:16:05.034Z,101271.53
2023-05-10T19:18:07.411Z,101269.16
2023-05-10T19:20:09.867Z,101258.44
2023-05-10T19:22:12.650Z,101270.16
2023-05-10T19:24:14.227Z,101257.88
2023-05-10T19:26:15.660Z,101226.19
2023-05-10T19:28:17.078Z,101276.56
2023-05-10T19:30:18.800Z,101257.56
2023-05-10T19:32:20.233Z,101259.25
2023-05-10T19:34:21.629Z,101256.19
2023-05-10T19:36:23.329Z,101277.13
2023-05-10T19:38:25.507Z,101280.88
2023-05-10T19:40:26.918Z,101271.84
2023-05-10T19:42:28.422Z,101256.13
2023-05-10T19:44:29.821Z,101263.06
2023-05-10T19:46:31.294Z,101263.50
2023-05-10T19:48:32.982Z,101254.75
2023-05-10T19:50:34.407Z,101284.53
2023-05-10T19:52:35.828Z,101266.59
2023-05-10T19:54:37.411Z,101264.63
2023-05-10T19:56:38.866Z,101291.81
2023-05-10T19:58:40.515Z,101280.34
2023-05-10T20:00:42.042Z,101280.72
2023-05-10T20:02:43.506Z,101279.78
2023-05-10T20:04:45.016Z,101279.28
2023-05-10T20:06:46.819Z,101282.44
2023-05-10T20:08:48.215Z,101281.44
2023-05-10T20:10:49.654Z,101269.25
2023-05-10T20:12:51.543Z,101290.50
2023-05-10T20:14:53.055Z,101276.88
2023-05-10T20:16:54.524Z,101252.50
2023-05-10T20:18:56.250Z,101267.72
2023-05-10T20:21:00.064Z,101266.31
2023-05-10T20:23:01.501Z,101272.00
2023-05-10T20:25:03.141Z,101282.00
2023-05-10T20:27:04.544Z,101281.31
2023-05-10T20:29:06.004Z,101283.97
2023-05-10T20:31:07.672Z,101266.78
2023-05-10T20:33:09.176Z,101280.81
2023-05-10T20:35:10.673Z,101282.34
2023-05-10T20:37:12.363Z,101291.19
2023-05-10T20:39:13.757Z,101284.94
2023-05-10T20:41:15.152Z,101284.78
2023-05-10T20:43:17.018Z,101286.91
2023-05-10T20:45:18.400Z,101292.88
2023-05-10T20:47:19.974Z,101292.34
2023-05-10T20:49:21.742Z,101296.28
2023-05-10T20:51:24.161Z,101276.44
2023-05-10T20:53:25.682Z,101295.44
2023-05-10T20:55:27.976Z,101304.75
2023-05-10T20:57:29.405Z,101306.00
2023-05-10T20:59:30.836Z,101306.66
2023-05-10T21:01:32.551Z,101305.91
2023-05-10T21:03:33.970Z,101310.38
2023-05-10T21:05:35.423Z,101301.78
2023-05-10T21:07:37.024Z,101291.59
2023-05-10T21:09:38.426Z,101309.47
2023-05-10T21:11:39.956Z,101304.63
2023-05-10T21:13:41.678Z,101301.13
2023-05-10T21:15:43.087Z,101313.06
2023-05-10T21:17:45.072Z,101300.06
2023-05-10T21:19:46.910Z,101295.31
2023-05-10T21:21:48.586Z,101311.50
2023-05-10T21:23:50.084Z,101313.47
2023-05-10T21:25:51.703Z,101281.03
2023-05-10T21:27:53.115Z,101300.19
2023-05-10T21:29:54.506Z,101317.09
2023-05-10T21:31:56.183Z,101296.56
2023-05-10T21:33:58.190Z,101314.94
2023-05-10T21:35:59.683Z,101307.09
2023-05-10T21:38:01.336Z,101301.38
2023-05-10T21:40:03.067Z,101314.25
2023-05-10T21:42:04.654Z,101297.50
2023-05-10T21:44:06.273Z,101301.66
2023-05-10T21:46:07.767Z,101327.97
2023-05-10T21:48:09.258Z,101309.63
2023-05-10T21:50:11.883Z,101327.97
2023-05-10T21:52:13.313Z,101305.88
2023-05-10T21:54:14.719Z,101320.69
2023-05-10T21:56:16.411Z,101323.50
2023-05-10T21:58:17.986Z,101320.41
2023-05-10T22:00:19.605Z,101320.84
2023-05-10T22:02:21.533Z,101290.22
2023-05-10T22:04:23.014Z,101315.09
2023-05-10T22:06:24.466Z,101328.25
2023-05-10T22:08:26.041Z,101334.69
2023-05-10T22:10:27.508Z,101340.31
2023-05-10T22:12:28.928Z,101322.69
2023-05-10T22:14:30.651Z,101329.81
2023-05-10T22:16:32.124Z,101327.28
2023-05-10T22:18:33.597Z,101326.31
2023-05-10T22:20:35.485Z,101331.63
2023-05-10T22:22:36.967Z,101340.06
2023-05-10T22:24:38.482Z,101341.59
2023-05-10T22:26:40.228Z,101318.75
2023-05-10T22:28:41.641Z,101345.06
2023-05-10T22:30:43.381Z,101343.09
2023-05-10T22:32:45.130Z,101352.88
2023-05-10T22:34:46.551Z,101341.41
2023-05-10T22:36:48.135Z,101357.22
2023-05-10T22:38:49.737Z,101335.94
2023-05-10T22:40:51.125Z,101358.06
2023-05-10T22:42:52.513Z,101361.97
2023-05-10T22:44:54.084Z,101357.66
2023-05-10T22:46:55.659Z,101348.41
2023-05-10T22:48:57.175Z,101358.75
2023-05-10T22:50:58.854Z,101336.63
2023-05-10T22:53:00.253Z,101358.63
2023-05-10T22:55:01.726Z,101338.16
2023-05-10T22:57:03.537Z,101353.59
2023-05-10T22:59:04.993Z,101358.19
2023-05-10T23:01:06.422Z,101360.16
2023-05-10T23:03:08.146Z,101349.53
2023-05-10T23:05:09.897Z,101338.75
2023-05-10T23:07:11.399Z,101356.25
2023-05-10T23:09:12.964Z,101361.69
2023-05-10T23:11:14.375Z,101355.66
2023-05-10T23:13:15.756Z,101363.09
2023-05-10T23:15:17.393Z,101355.50
2023-05-10T23:17:18.784Z,101363.94
2023-05-10T23:19:20.174Z,101364.75
2023-05-10T23:21:21.912Z,101361.81
2023-05-10T23:23:23.352Z,101370.88